createdAt,value
2022-12-18T00:02:20.895Z,29.28
2022-12-18T00:04:47.322Z,30.44
2022-12-18T00:07:13.719Z,32.34
2022-12-18T00:09:40.675Z,30.34
2022-12-18T00:14:42.275Z,27.70
2022-12-18T00:17:08.698Z,29.10
2022-12-18T00:19:36.895Z,28.90
2022-12-18T00:22:03.333Z,29.16
2022-12-18T00:24:29.748Z,33.63
2022-12-18T00:26:56.155Z,28.78
2022-12-18T00:29:22.574Z,29.47
2022-12-18T00:31:49.094Z,28.59
2022-12-18T00:34:15.523Z,29.10
2022-12-18T00:36:41.949Z,29.37
2022-12-18T00:39:08.430Z,27.62
2022-12-18T00:41:34.848Z,28.58
2022-12-18T00:44:01.265Z,29.61
2022-12-18T00:46:27.663Z,30.32
2022-12-18T00:48:54.053Z,34.77
2022-12-18T00:51:20.487Z,31.94
2022-12-18T00:53:46.911Z,33.07
2022-12-18T00:56:13.319Z,32.87
2022-12-18T00:58:39.746Z,31.68
2022-12-18T01:01:06.162Z,33.80
2022-12-18T01:03:32.633Z,32.02
2022-12-18T01:05:59.170Z,32.44
2022-12-18T01:08:25.576Z,32.59
2022-12-18T01:10:52.009Z,32.52
2022-12-18T01:13:18.502Z,32.00
2022-12-18T01:15:44.958Z,32.15
2022-12-18T01:18:11.371Z,31.58
2022-12-18T01:20:37.791Z,31.08
2022-12-18T01:23:04.196Z,31.13
2022-12-18T01:25:30.643Z,28.71
2022-12-18T01:27:57.102Z,28.40
2022-12-18T01:30:23.526Z,28.83
2022-12-18T01:32:49.952Z,34.68
2022-12-18T01:35:16.389Z,35.47
2022-12-18T01:37:42.836Z,35.99
2022-12-18T01:40:09.259Z,35.23
2022-12-18T01:42:35.695Z,35.03
2022-12-18T01:45:02.143Z,35.09
2022-12-18T01:47:28.570Z,33.45
2022-12-18T01:49:54.983Z,33.24
2022-12-18T01:52:21.383Z,31.49
2022-12-18T01:54:47.823Z,30.92
2022-12-18T01:57:14.244Z,31.15
2022-12-18T01:59:40.662Z,32.76
2022-12-18T02:02:07.799Z,34.07
2022-12-18T02:04:34.350Z,33.27
2022-12-18T02:07:00.794Z,33.60
2022-12-18T02:09:27.329Z,33.66
2022-12-18T02:11:53.757Z,32.82
2022-12-18T02:14:20.199Z,32.72
2022-12-18T02:16:46.772Z,32.87
2022-12-18T02:19:13.263Z,33.34
2022-12-18T02:21:39.693Z,32.82
2022-12-18T02:24:06.131Z,32.70
2022-12-18T02:26:32.598Z,34.90
2022-12-18T02:28:59.023Z,29.85
2022-12-18T02:31:25.440Z,26.15
2022-12-18T02:33:51.887Z,26.05
2022-12-18T02:36:18.289Z,28.33
2022-12-18T02:38:44.723Z,29.29
2022-12-18T02:41:11.135Z,29.85
2022-12-18T02:43:37.825Z,30.94
2022-12-18T02:46:04.675Z,29.75
2022-12-18T02:48:31.142Z,30.70
2022-12-18T02:50:57.574Z,32.93
2022-12-18T02:53:24.015Z,35.27
2022-12-18T02:55:50.442Z,28.11
2022-12-18T02:58:16.896Z,24.73
2022-12-18T03:00:43.311Z,19.57
2022-12-18T03:03:09.826Z,17.77
2022-12-18T03:05:36.325Z,20.17
2022-12-18T03:08:02.814Z,21.37
2022-12-18T03:10:29.224Z,21.21
2022-12-18T03:12:55.667Z,20.20
2022-12-18T03:15:22.085Z,18.73
2022-12-18T03:17:48.509Z,17.44
2022-12-18T03:20:14.932Z,18.01
2022-12-18T03:22:41.365Z,18.60
2022-12-18T03:25:07.806Z,18.35
2022-12-18T03:27:34.289Z,19.65
2022-12-18T03:30:00.711Z,20.51
2022-12-18T03:32:27.147Z,19.84
2022-12-18T03:34:53.553Z,21.01
2022-12-18T03:37:19.949Z,20.84
2022-12-18T03:39:46.397Z,19.26
2022-12-18T03:42:12.843Z,19.73
2022-12-18T03:44:39.311Z,20.53
2022-12-18T03:47:05.749Z,20.57
2022-12-18T03:49:32.179Z,20.47
2022-12-18T03:51:58.612Z,21.19
2022-12-18T03:54:25.041Z,21.68
2022-12-18T03:56:51.472Z,20.11
2022-12-18T03:59:17.984Z,20.65
2022-12-18T04:01:44.457Z,21.46
2022-12-18T04:04:11.110Z,22.64
2022-12-18T04:06:37.567Z,22.95
2022-12-18T04:09:04.034Z,22.30
2022-12-18T04:11:30.453Z,21.29
2022-12-18T04:13:56.898Z,21.06
2022-12-18T04:16:23.461Z,20.36
2022-12-18T04:18:49.898Z,21.42
2022-12-18T04:21:17.329Z,20.31
2022-12-18T04:23:43.892Z,20.52
2022-12-18T04:26:10.322Z,23.22
2022-12-18T04:28:36.741Z,23.58
2022-12-18T04:31:03.174Z,20.83
2022-12-18T04:33:29.644Z,19.12
2022-12-18T04:35:56.076Z,18.05
2022-12-18T04:38:22.500Z,19.06
2022-12-18T04:40:48.944Z,21.28
2022-12-18T04:43:15.424Z,24.46
2022-12-18T04:45:41.888Z,23.95
2022-12-18T04:48:08.316Z,20.12
2022-12-18T04:50:34.787Z,22.01
2022-12-18T04:53:01.224Z,20.59
2022-12-18T04:55:27.651Z,21.66
2022-12-18T04:57:54.116Z,23.56
2022-12-18T05:00:20.557Z,23.30
2022-12-18T05:02:47.056Z,23.99
2022-12-18T05:05:13.577Z,24.30
2022-12-18T05:07:40.021Z,25.56
2022-12-18T05:10:06.477Z,26.54
2022-12-18T05:12:32.904Z,27.77
2022-12-18T05:14:59.334Z,28.03
2022-12-18T05:17:25.745Z,28.77
2022-12-18T05:19:52.197Z,29.36
2022-12-18T05:22:18.638Z,29.91
2022-12-18T05:24:45.245Z,29.73
2022-12-18T05:27:11.675Z,30.09
2022-12-18T05:29:38.206Z,31.55
2022-12-18T05:32:04.621Z,34.55
2022-12-18T05:34:31.065Z,31.36
2022-12-18T05:36:57.526Z,30.12
2022-12-18T05:39:23.954Z,28.07
2022-12-18T05:41:50.707Z,26.17
2022-12-18T05:44:17.183Z,27.11
2022-12-18T05:46:43.733Z,28.83
2022-12-18T05:49:10.234Z,28.51
2022-12-18T05:51:36.902Z,29.46
2022-12-18T05:54:03.306Z,30.09
2022-12-18T05:56:29.794Z,26.77
2022-12-18T05:58:56.216Z,25.50
2022-12-18T06:01:23.892Z,27.32
2022-12-18T06:03:50.506Z,27.99
2022-12-18T06:06:17.066Z,28.45
2022-12-18T06:08:46.447Z,30.32
2022-12-18T06:11:13.446Z,77.18
2022-12-18T06:13:40.173Z,39.64
2022-12-18T06:16:07.020Z,31.85
2022-12-18T06:18:33.484Z,33.64
2022-12-18T06:20:59.904Z,31.61
2022-12-18T06:23:26.354Z,28.73
2022-12-18T06:25:52.789Z,30.24
2022-12-18T06:28:19.235Z,30.31
2022-12-18T06:30:45.772Z,28.98
2022-12-18T06:33:12.213Z,27.63
2022-12-18T06:35:38.650Z,27.51
2022-12-18T06:38:05.107Z,30.53
2022-12-18T06:40:31.522Z,31.62
2022-12-18T06:42:57.985Z,30.54
2022-12-18T06:45:24.448Z,31.57
2022-12-18T06:47:50.939Z,31.27
2022-12-18T06:50:17.396Z,30.43
2022-12-18T06:52:43.829Z,31.50
2022-12-18T06:55:10.354Z,31.45
2022-12-18T06:57:36.796Z,31.86
2022-12-18T07:00:06.964Z,31.64
2022-12-18T07:02:33.507Z,31.56
2022-12-18T07:05:00.196Z,30.98
2022-12-18T07:07:26.696Z,30.84
2022-12-18T07:09:53.144Z,30.73
2022-12-18T07:12:19.818Z,30.31
2022-12-18T07:14:46.379Z,29.30
2022-12-18T07:17:12.857Z,28.62
2022-12-18T07:19:39.334Z,30.53
2022-12-18T07:22:05.786Z,30.99
2022-12-18T07:24:32.970Z,30.67
2022-12-18T07:26:59.395Z,30.81
2022-12-18T07:29:25.797Z,31.39
2022-12-18T07:31:52.295Z,31.58
2022-12-18T07:34:18.765Z,31.32
2022-12-18T07:36:45.193Z,31.66
2022-12-18T07:39:11.609Z,33.12
2022-12-18T07:41:40.264Z,32.57
2022-12-18T07:44:10.182Z,32.82
2022-12-18T07:46:36.607Z,33.39
2022-12-18T07:49:03.052Z,32.76
2022-12-18T07:51:29.490Z,29.82
2022-12-18T07:53:55.916Z,30.04
2022-12-18T07:56:27.552Z,35.50
2022-12-18T07:58:54.880Z,31.76
2022-12-18T08:01:21.513Z,31.19
2022-12-18T08:03:48.099Z,30.21
2022-12-18T08:06:14.694Z,28.68
2022-12-18T08:08:41.106Z,27.64
2022-12-18T08:11:07.623Z,27.08
2022-12-18T08:13:34.061Z,28.49
2022-12-18T08:16:00.466Z,29.54
2022-12-18T08:18:26.949Z,31.05
2022-12-18T08:20:53.393Z,31.68
2022-12-18T08:23:19.824Z,31.35
2022-12-18T08:25:46.272Z,31.96
2022-12-18T08:28:12.682Z,30.57
2022-12-18T08:30:39.189Z,31.03
2022-12-18T08:33:05.646Z,31.29
2022-12-18T08:35:36.440Z,31.12
2022-12-18T08:38:05.263Z,29.81
2022-12-18T08:40:31.690Z,29.02
2022-12-18T08:42:58.115Z,27.07
2022-12-18T08:45:24.532Z,27.18
2022-12-18T08:47:50.975Z,28.24
2022-12-18T08:50:17.396Z,27.83
2022-12-18T08:52:44.976Z,28.33
2022-12-18T08:55:12.651Z,29.66
2022-12-18T08:57:39.110Z,29.45
2022-12-18T09:00:06.554Z,28.92
2022-12-18T09:02:33.122Z,28.19
2022-12-18T09:04:59.613Z,29.26
2022-12-18T09:07:26.032Z,28.28
2022-12-18T09:09:52.461Z,28.09
2022-12-18T09:12:18.928Z,29.22
2022-12-18T09:14:45.389Z,28.23
2022-12-18T09:17:11.892Z,29.24
2022-12-18T09:19:38.341Z,30.21
2022-12-18T09:22:04.764Z,29.54
2022-12-18T09:24:31.164Z,30.95
2022-12-18T09:26:58.212Z,29.75
2022-12-18T09:29:24.691Z,29.43
2022-12-18T09:31:51.107Z,29.50
2022-12-18T09:34:17.538Z,29.51
2022-12-18T09:36:43.953Z,30.43
2022-12-18T09:39:10.399Z,31.70
2022-12-18T09:41:36.820Z,30.69
2022-12-18T09:44:03.225Z,31.00
2022-12-18T09:46:29.689Z,31.63
2022-12-18T09:48:56.167Z,31.98
2022-12-18T09:51:22.581Z,30.91
2022-12-18T09:53:49.069Z,30.31
2022-12-18T09:56:15.500Z,32.05
2022-12-18T09:58:42.211Z,32.09
2022-12-18T10:01:08.939Z,31.19
2022-12-18T10:03:35.366Z,31.29
2022-12-18T10:06:01.830Z,31.18
2022-12-18T10:08:28.258Z,31.48
2022-12-18T10:10:54.791Z,32.51
2022-12-18T10:13:21.249Z,31.32
2022-12-18T10:15:50.308Z,32.37
2022-12-18T10:18:21.662Z,31.86
2022-12-18T10:20:48.563Z,31.04
2022-12-18T10:23:14.986Z,30.56
2022-12-18T10:25:41.447Z,30.17
2022-12-18T10:28:07.870Z,30.87
2022-12-18T10:30:34.559Z,30.75
2022-12-18T10:33:02.561Z,32.33
2022-12-18T10:35:32.917Z,51.83
2022-12-18T10:38:22.396Z,56.87
2022-12-18T10:44:06.471Z,34.39
2022-12-18T10:46:39.282Z,32.61
2022-12-18T10:49:08.231Z,31.16
2022-12-18T10:51:35.122Z,31.05
2022-12-18T10:54:06.809Z,30.78
2022-12-18T10:56:34.473Z,31.23
2022-12-18T10:59:03.078Z,31.28
2022-12-18T11:01:33.976Z,30.94
2022-12-18T11:04:04.552Z,29.99
2022-12-18T11:06:32.306Z,30.21
2022-12-18T11:09:09.362Z,30.65
2022-12-18T11:11:40.727Z,34.61
2022-12-18T11:14:07.663Z,31.19
2022-12-18T11:19:30.780Z,31.08
2022-12-18T11:21:58.233Z,31.49
2022-12-18T11:24:27.003Z,30.33
2022-12-18T11:26:59.321Z,31.84
2022-12-18T11:29:27.128Z,31.81
2022-12-18T11:34:39.314Z,30.93
2022-12-18T11:37:06.997Z,30.64
2022-12-18T11:39:34.533Z,34.28
2022-12-18T11:42:02.126Z,31.47
2022-12-18T11:44:28.881Z,33.10
2022-12-18T11:46:56.508Z,31.29
2022-12-18T11:49:24.043Z,32.01
2022-12-18T11:51:51.690Z,32.27
2022-12-18T11:54:20.392Z,31.65
2022-12-18T11:56:50.045Z,31.87
2022-12-18T11:59:22.177Z,32.78
2022-12-18T12:01:49.198Z,33.79
2022-12-18T12:04:17.816Z,33.65
2022-12-18T12:06:47.082Z,32.04
2022-12-18T12:09:14.958Z,31.20
2022-12-18T12:11:42.588Z,32.19
2022-12-18T12:14:10.181Z,33.87
2022-12-18T12:16:37.139Z,32.67
2022-12-18T12:19:04.378Z,32.70
2022-12-18T12:21:31.978Z,32.61
2022-12-18T12:23:59.812Z,32.75
2022-12-18T12:26:27.353Z,33.41
2022-12-18T12:28:55.146Z,31.91
2022-12-18T12:31:24.157Z,32.81
2022-12-18T12:33:51.348Z,32.54
2022-12-18T12:36:18.138Z,31.73
2022-12-18T12:38:50.017Z,31.46
2022-12-18T12:41:19.256Z,32.02
2022-12-18T12:43:50.561Z,30.68
2022-12-18T12:46:19.564Z,30.10
2022-12-18T12:48:48.092Z,29.26
2022-12-18T12:51:15.691Z,28.64
2022-12-18T12:53:44.674Z,28.48
2022-12-18T12:56:12.891Z,28.28
2022-12-18T12:58:39.510Z,29.62
2022-12-18T13:01:08.165Z,29.45
2022-12-18T13:03:35.687Z,29.97
2022-12-18T13:06:02.292Z,31.04
2022-12-18T13:08:31.111Z,33.03
2022-12-18T13:11:00.600Z,29.43
2022-12-18T13:13:29.152Z,28.57
2022-12-18T13:15:56.706Z,29.38
2022-12-18T13:18:24.294Z,30.48
2022-12-18T13:20:55.180Z,30.83
2022-12-18T13:23:25.281Z,30.27
2022-12-18T13:25:53.083Z,29.17
2022-12-18T13:28:20.693Z,29.44
2022-12-18T13:30:48.316Z,30.25
2022-12-18T13:33:15.888Z,29.98
2022-12-18T13:35:44.531Z,29.93
2022-12-18T13:38:11.557Z,30.88
2022-12-18T13:40:38.136Z,29.30
2022-12-18T13:43:04.592Z,28.80
2022-12-18T13:45:31.839Z,29.26
2022-12-18T13:47:59.452Z,28.81
2022-12-18T13:50:30.975Z,29.46
2022-12-18T13:53:02.691Z,33.06
2022-12-18T13:55:30.286Z,33.10
2022-12-18T13:57:57.866Z,30.64
2022-12-18T14:00:25.476Z,28.87
2022-12-18T14:02:53.218Z,30.85
2022-12-18T14:05:20.686Z,31.26
2022-12-18T14:07:51.884Z,31.53
2022-12-18T14:10:42.214Z,31.34
2022-12-18T14:13:06.560Z,31.96
2022-12-18T14:15:35.181Z,32.10
2022-12-18T14:18:02.767Z,30.84
2022-12-18T14:20:29.348Z,31.78
2022-12-18T14:22:57.934Z,31.70
2022-12-18T14:25:25.517Z,32.09
2022-12-18T14:27:53.113Z,31.43
2022-12-18T14:30:20.715Z,31.76
2022-12-18T14:32:48.297Z,32.16
2022-12-18T14:35:14.897Z,30.56
2022-12-18T14:37:41.489Z,30.06
2022-12-18T14:40:11.520Z,30.84
2022-12-18T14:42:38.717Z,30.57
2022-12-18T14:45:13.855Z,30.58
2022-12-18T14:47:41.980Z,31.15
2022-12-18T14:50:09.499Z,33.15
2022-12-18T14:52:36.077Z,33.29
2022-12-18T14:55:02.664Z,33.30
2022-12-18T14:57:29.263Z,34.53
2022-12-18T14:59:55.872Z,33.71
2022-12-18T15:02:23.647Z,34.46
2022-12-18T15:04:51.045Z,34.25
2022-12-18T15:07:17.606Z,32.50
2022-12-18T15:09:46.231Z,32.52
2022-12-18T15:12:12.815Z,33.65
2022-12-18T15:14:40.463Z,34.01
2022-12-18T15:17:07.980Z,33.14
2022-12-18T15:19:35.672Z,33.62
2022-12-18T15:22:06.317Z,32.68
2022-12-18T15:24:33.891Z,33.99
2022-12-18T15:27:01.507Z,33.72
2022-12-18T15:29:28.128Z,33.52
2022-12-18T15:31:55.669Z,34.19
2022-12-18T15:34:22.275Z,35.68
2022-12-18T15:36:49.839Z,35.64
2022-12-18T15:39:17.438Z,34.95
2022-12-18T15:41:45.025Z,56.62
2022-12-18T15:44:12.640Z,42.63
2022-12-18T15:46:40.283Z,35.63
2022-12-18T15:49:08.803Z,35.21
2022-12-18T15:51:37.477Z,44.88
2022-12-18T15:54:05.008Z,51.75
2022-12-18T15:56:32.614Z,41.39
2022-12-18T15:59:00.199Z,35.08
2022-12-18T16:01:27.948Z,33.67
2022-12-18T16:03:56.775Z,32.97
2022-12-18T16:06:24.034Z,32.29
2022-12-18T16:08:51.553Z,33.01
2022-12-18T16:11:18.151Z,32.73
2022-12-18T16:13:47.017Z,33.57
2022-12-18T16:16:13.575Z,33.47
2022-12-18T16:18:40.054Z,32.95
2022-12-18T16:21:07.501Z,35.11
2022-12-18T16:23:34.098Z,37.60
2022-12-18T16:26:00.725Z,49.63
2022-12-18T16:28:28.274Z,48.41
2022-12-18T16:30:55.940Z,40.69
2022-12-18T16:33:23.464Z,43.16
2022-12-18T16:35:50.057Z,48.89
2022-12-18T16:38:16.649Z,48.83
2022-12-18T16:40:44.255Z,36.65
2022-12-18T16:43:10.829Z,32.99
2022-12-18T16:45:37.445Z,32.43
2022-12-18T16:48:04.040Z,32.97
2022-12-18T16:50:31.651Z,34.30
2022-12-18T16:52:59.214Z,34.83
2022-12-18T16:55:26.179Z,33.70
2022-12-18T16:57:54.406Z,31.85
2022-12-18T17:00:21.019Z,33.10
2022-12-18T17:02:47.808Z,32.38
2022-12-18T17:05:15.266Z,31.73
2022-12-18T17:07:41.857Z,31.08
2022-12-18T17:10:09.431Z,31.63
2022-12-18T17:12:37.021Z,32.31
2022-12-18T17:15:04.627Z,33.28
2022-12-18T17:17:31.234Z,32.94
2022-12-18T17:19:58.794Z,34.42
2022-12-18T17:22:26.379Z,34.84
2022-12-18T17:24:52.979Z,34.36
2022-12-18T17:27:20.600Z,32.80
2022-12-18T17:29:48.799Z,34.32
2022-12-18T17:32:15.641Z,33.00
2022-12-18T17:34:42.055Z,31.96
2022-12-18T17:37:08.926Z,32.28
2022-12-18T17:39:35.548Z,32.73
2022-12-18T17:42:03.120Z,33.04
2022-12-18T17:44:31.709Z,32.38
2022-12-18T17:46:58.326Z,34.47
2022-12-18T17:49:25.931Z,34.68
2022-12-18T17:51:53.588Z,35.60
2022-12-18T17:54:21.113Z,35.47
2022-12-18T17:56:49.709Z,36.57
2022-12-18T17:59:17.305Z,35.92
2022-12-18T18:01:45.626Z,36.02
2022-12-18T18:04:13.654Z,36.46
2022-12-18T18:06:41.075Z,36.46
2022-12-18T18:09:11.171Z,36.71
2022-12-18T18:11:44.278Z,33.86
2022-12-18T18:14:11.890Z,36.44
2022-12-18T18:16:40.562Z,37.95
2022-12-18T18:19:08.091Z,47.26
2022-12-18T18:21:34.707Z,43.20
2022-12-18T18:24:02.301Z,39.64
2022-12-18T18:26:28.876Z,42.93
2022-12-18T18:28:57.506Z,46.80
2022-12-18T18:31:25.165Z,45.30
2022-12-18T18:33:52.671Z,43.43
2022-12-18T18:36:19.287Z,42.56
2022-12-18T18:38:48.523Z,39.98
2022-12-18T18:41:15.467Z,68.09
2022-12-18T18:43:43.379Z,42.62
2022-12-18T18:46:10.705Z,38.67
2022-12-18T18:48:38.238Z,39.74
2022-12-18T18:51:06.865Z,39.30
2022-12-18T18:53:34.680Z,38.53
2022-12-18T18:56:37.391Z,39.23
2022-12-18T18:58:48.470Z,40.15
2022-12-18T19:01:15.442Z,48.30
2022-12-18T19:03:43.315Z,52.25
2022-12-18T19:06:10.500Z,41.20
2022-12-18T19:08:38.323Z,38.71
2022-12-18T19:11:05.697Z,37.66
2022-12-18T19:13:32.292Z,38.61
2022-12-18T19:15:58.912Z,41.22
2022-12-18T19:18:26.493Z,41.34
2022-12-18T19:20:54.102Z,40.43
2022-12-18T19:23:21.673Z,39.34
2022-12-18T19:25:50.781Z,38.33
2022-12-18T19:28:26.896Z,39.72
2022-12-18T19:30:58.975Z,39.38
2022-12-18T19:33:42.236Z,38.69
2022-12-18T19:36:09.758Z,38.06
2022-12-18T19:38:37.476Z,41.01
2022-12-18T19:41:04.930Z,40.65
2022-12-18T19:43:32.526Z,42.58
2022-12-18T19:45:59.221Z,42.14
2022-12-18T19:48:26.693Z,41.00
2022-12-18T19:50:53.612Z,40.43
2022-12-18T19:53:20.917Z,40.12
2022-12-18T19:55:48.507Z,39.49
2022-12-18T19:58:17.087Z,39.70
2022-12-18T20:00:43.990Z,38.99
2022-12-18T20:03:22.367Z,39.97
2022-12-18T20:05:53.945Z,39.43
2022-12-18T20:08:22.547Z,37.45
2022-12-18T20:10:50.128Z,38.27
2022-12-18T20:13:17.721Z,39.91
2022-12-18T20:15:46.361Z,40.86
2022-12-18T20:18:12.937Z,39.45
2022-12-18T20:20:39.548Z,38.59
2022-12-18T20:23:07.147Z,38.41
2022-12-18T20:25:34.763Z,38.65
2022-12-18T20:28:01.328Z,39.80
2022-12-18T20:30:27.928Z,38.64
2022-12-18T20:32:55.508Z,40.35
2022-12-18T20:35:23.110Z,37.94
2022-12-18T20:37:50.915Z,37.15
2022-12-18T20:40:19.327Z,36.65
2022-12-18T20:42:46.930Z,36.07
2022-12-18T20:45:13.525Z,37.67
2022-12-18T20:47:40.117Z,37.96
2022-12-18T20:50:06.721Z,37.04
2022-12-18T20:52:33.300Z,36.47
2022-12-18T20:55:01.880Z,37.41
2022-12-18T20:57:28.494Z,37.34
2022-12-18T20:59:56.078Z,39.02
2022-12-18T21:02:23.133Z,40.29
2022-12-18T21:04:50.275Z,40.05
2022-12-18T21:07:16.874Z,39.97
2022-12-18T21:09:43.450Z,40.50
2022-12-18T21:12:10.398Z,40.07
2022-12-18T21:14:41.635Z,38.78
2022-12-18T21:17:08.299Z,38.80
2022-12-18T21:19:35.836Z,39.86
2022-12-18T21:22:03.422Z,43.06
2022-12-18T21:24:32.950Z,42.29
2022-12-18T21:27:00.657Z,41.61
2022-12-18T21:29:28.247Z,40.70
2022-12-18T21:31:55.042Z,40.60
2022-12-18T21:34:28.974Z,39.16
2022-12-18T21:36:56.074Z,40.08
2022-12-18T21:39:22.632Z,40.39
2022-12-18T21:41:50.240Z,41.87
2022-12-18T21:44:19.868Z,60.18
2022-12-18T21:46:51.350Z,68.10
2022-12-18T21:49:22.088Z,53.88
2022-12-18T21:51:48.659Z,52.15
2022-12-18T21:54:15.263Z,49.76
2022-12-18T21:56:42.844Z,45.57
2022-12-18T21:59:09.434Z,39.34
2022-12-18T22:01:37.049Z,39.33
2022-12-18T22:04:04.673Z,39.46
2022-12-18T22:06:32.210Z,40.37
2022-12-18T22:08:58.806Z,39.65
2022-12-18T22:11:25.393Z,38.12
2022-12-18T22:13:52.994Z,38.83
2022-12-18T22:16:19.573Z,38.91
2022-12-18T22:18:46.073Z,41.01
2022-12-18T22:21:12.771Z,43.03
2022-12-18T22:23:39.360Z,41.25
2022-12-18T22:26:06.933Z,38.66
2022-12-18T22:28:33.531Z,36.78
2022-12-18T22:31:00.039Z,37.33
2022-12-18T22:33:27.742Z,39.13
2022-12-18T22:35:55.317Z,37.98
2022-12-18T22:38:21.915Z,36.39
2022-12-18T22:40:48.482Z,37.84
2022-12-18T22:43:16.074Z,38.47
2022-12-18T22:45:42.660Z,36.97
2022-12-18T22:48:10.264Z,38.66
2022-12-18T22:50:37.841Z,38.74
2022-12-18T22:53:04.435Z,38.90
2022-12-18T22:55:32.033Z,39.94
2022-12-18T22:57:59.609Z,38.96
2022-12-18T23:00:26.275Z,39.21
2022-12-18T23:02:59.996Z,40.86
2022-12-18T23:05:28.434Z,40.36
2022-12-18T23:07:56.009Z,39.87
2022-12-18T23:10:22.590Z,43.12
2022-12-18T23:12:49.200Z,43.82
2022-12-18T23:15:16.789Z,41.82
2022-12-18T23:17:47.870Z,40.17
2022-12-18T23:20:15.016Z,40.54
2022-12-18T23:22:41.579Z,40.78
2022-12-18T23:25:08.180Z,40.04
2022-12-18T23:27:35.779Z,41.32
2022-12-18T23:30:02.374Z,38.73
2022-12-18T23:32:28.960Z,40.10
2022-12-18T23:34:56.549Z,41.14
2022-12-18T23:37:57.082Z,40.50
2022-12-18T23:40:10.819Z,39.69
2022-12-18T23:42:37.407Z,39.12
2022-12-18T23:45:07.474Z,40.33
2022-12-18T23:47:44.642Z,39.31
2022-12-18T23:50:14.245Z,39.42
2022-12-18T23:52:41.834Z,39.65
2022-12-18T23:55:09.456Z,40.43
2022-12-18T23:57:36.061Z,40.84
